< < Back
Terminal Aerodrome Forecast


Current Version              Previous Versions:   1  2  3  4  5  6  7  8  9  

Terminal Aerodrome Forecast

853
FTUS44 KBMX 030520
TAFANB
TAF
KANB 030520Z 0306/0406 00000KT P6SM SKC=



Latest METAR

130
SAUS70 KWBC 031900 RRE
MTRANB
METAR KANB 031853Z AUTO VRB03KT 10SM CLR 26/07 A3015 RMK AO2 SLP205
T02560072


USA.gov is the U.S. government's official web portal to all federal, state and local government web resources and services.